sensor_id;sensor_type;location;lat;lon;timestamp;pressure;altitude;pressure_sealevel;temperature;humidity
74680;BME280;63211;48.548;2.704;2024-01-06T00:01:48;99992.56;;;17.73;58.58
74680;BME280;63211;48.548;2.704;2024-01-06T00:04:14;99990.44;;;17.75;58.48
74680;BME280;63211;48.548;2.704;2024-01-06T00:06:41;99994.69;;;17.71;58.79
74680;BME280;63211;48.548;2.704;2024-01-06T00:09:09;99998.22;;;17.95;54.87
74680;BME280;63211;48.548;2.704;2024-01-06T00:11:36;99990.81;;;18.19;54.95
74680;BME280;63211;48.548;2.704;2024-01-06T00:14:02;100006.72;;;18.10;55.29
74680;BME280;63211;48.548;2.704;2024-01-06T00:16:29;99996.56;;;18.06;55.90
74680;BME280;63211;48.548;2.704;2024-01-06T00:18:55;100000.34;;;18.05;55.80
74680;BME280;63211;48.548;2.704;2024-01-06T00:21:22;100007.09;;;18.02;55.21
74680;BME280;63211;48.548;2.704;2024-01-06T00:23:48;100009.34;;;18.05;55.15
74680;BME280;63211;48.548;2.704;2024-01-06T00:26:16;100020.00;;;18.07;55.72
74680;BME280;63211;48.548;2.704;2024-01-06T00:28:43;100019.66;;;18.03;56.23
74680;BME280;63211;48.548;2.704;2024-01-06T00:31:09;100014.44;;;18.02;56.52
74680;BME280;63211;48.548;2.704;2024-01-06T00:33:36;100017.63;;;17.99;56.98
74680;BME280;63211;48.548;2.704;2024-01-06T00:36:03;100015.97;;;17.98;57.24
74680;BME280;63211;48.548;2.704;2024-01-06T00:38:29;100025.44;;;17.95;57.57
74680;BME280;63211;48.548;2.704;2024-01-06T00:40:56;100003.34;;;17.80;57.61
74680;BME280;63211;48.548;2.704;2024-01-06T00:43:24;100021.06;;;17.94;57.74
74680;BME280;63211;48.548;2.704;2024-01-06T00:45:51;100022.63;;;17.90;58.04
74680;BME280;63211;48.548;2.704;2024-01-06T00:48:18;100031.84;;;17.89;58.15
74680;BME280;63211;48.548;2.704;2024-01-06T00:50:44;100025.00;;;17.87;58.08
74680;BME280;63211;48.548;2.704;2024-01-06T00:53:11;100028.78;;;17.85;58.37
74680;BME280;63211;48.548;2.704;2024-01-06T00:55:37;100024.06;;;17.81;58.51
74680;BME280;63211;48.548;2.704;2024-01-06T00:58:04;100032.22;;;17.81;59.03
74680;BME280;63211;48.548;2.704;2024-01-06T01:00:32;100029.03;;;17.84;58.42
74680;BME280;63211;48.548;2.704;2024-01-06T01:02:58;100028.28;;;17.89;57.72
74680;BME280;63211;48.548;2.704;2024-01-06T01:05:25;100037.06;;;17.91;57.30
74680;BME280;63211;48.548;2.704;2024-01-06T01:07:51;100022.28;;;17.87;57.04
74680;BME280;63211;48.548;2.704;2024-01-06T01:10:18;100024.38;;;17.96;56.59
74680;BME280;63211;48.548;2.704;2024-01-06T01:12:45;100033.75;;;18.00;56.00
74680;BME280;63211;48.548;2.704;2024-01-06T01:15:11;100028.66;;;18.04;55.26
74680;BME280;63211;48.548;2.704;2024-01-06T01:17:39;100033.47;;;18.13;54.68
74680;BME280;63211;48.548;2.704;2024-01-06T01:20:07;100032.88;;;18.11;54.42
74680;BME280;63211;48.548;2.704;2024-01-06T01:22:33;100037.19;;;18.07;55.42
74680;BME280;63211;48.548;2.704;2024-01-06T01:25:00;100033.03;;;18.05;55.64
74680;BME280;63211;48.548;2.704;2024-01-06T01:27:30;100037.88;;;18.03;55.94
74680;BME280;63211;48.548;2.704;2024-01-06T01:29:57;100033.03;;;17.93;56.38
74680;BME280;63211;48.548;2.704;2024-01-06T01:32:23;100042.97;;;17.99;56.43
74680;BME280;63211;48.548;2.704;2024-01-06T01:34:51;100046.78;;;17.98;56.98
74680;BME280;63211;48.548;2.704;2024-01-06T01:37:18;100047.00;;;17.97;56.75
74680;BME280;63211;48.548;2.704;2024-01-06T01:39:44;100048.91;;;17.96;57.08
74680;BME280;63211;48.548;2.704;2024-01-06T01:42:11;100052.09;;;17.93;57.36
74680;BME280;63211;48.548;2.704;2024-01-06T01:44:37;100052.09;;;17.93;57.34
74680;BME280;63211;48.548;2.704;2024-01-06T01:47:05;100063.81;;;17.94;57.35
74680;BME280;63211;48.548;2.704;2024-01-06T01:49:31;100063.22;;;17.92;57.55
74680;BME280;63211;48.548;2.704;2024-01-06T01:52:00;100059.06;;;17.89;57.91
74680;BME280;63211;48.548;2.704;2024-01-06T01:54:26;100071.63;;;17.90;57.40
74680;BME280;63211;48.548;2.704;2024-01-06T01:56:53;100077.66;;;17.92;57.08
74680;BME280;63211;48.548;2.704;2024-01-06T01:59:20;100072.81;;;17.94;56.60
74680;BME280;63211;48.548;2.704;2024-01-06T02:01:47;100074.25;;;17.97;56.13
74680;BME280;63211;48.548;2.704;2024-01-06T02:04:15;100071.03;;;18.00;55.73
74680;BME280;63211;48.548;2.704;2024-01-06T02:06:41;100073.91;;;18.05;55.08
74680;BME280;63211;48.548;2.704;2024-01-06T02:09:09;100067.69;;;18.09;54.85
74680;BME280;63211;48.548;2.704;2024-01-06T02:11:36;100075.75;;;18.16;54.42
74680;BME280;63211;48.548;2.704;2024-01-06T02:14:03;100071.13;;;18.16;54.24
74680;BME280;63211;48.548;2.704;2024-01-06T02:16:29;100078.47;;;18.16;54.63
74680;BME280;63211;48.548;2.704;2024-01-06T02:18:56;100075.41;;;18.12;55.31
74680;BME280;63211;48.548;2.704;2024-01-06T02:21:23;100075.88;;;18.09;55.67
74680;BME280;63211;48.548;2.704;2024-01-06T02:23:51;100079.94;;;18.07;55.72
74680;BME280;63211;48.548;2.704;2024-01-06T02:26:18;100075.19;;;18.02;56.03
74680;BME280;63211;48.548;2.704;2024-01-06T02:28:45;100072.13;;;17.99;56.21
74680;BME280;63211;48.548;2.704;2024-01-06T02:31:13;100080.88;;;18.01;56.30
74680;BME280;63211;48.548;2.704;2024-01-06T02:33:39;100075.66;;;17.99;56.67
74680;BME280;63211;48.548;2.704;2024-01-06T02:36:06;100082.78;;;18.00;56.86
74680;BME280;63211;48.548;2.704;2024-01-06T02:38:33;100083.84;;;17.99;56.92
74680;BME280;63211;48.548;2.704;2024-01-06T02:41:01;100090.59;;;17.97;57.36
74680;BME280;63211;48.548;2.704;2024-01-06T02:43:28;100088.94;;;17.96;57.16
74680;BME280;63211;48.548;2.704;2024-01-06T02:45:54;100090.00;;;17.95;57.32
74680;BME280;63211;48.548;2.704;2024-01-06T02:48:21;100100.66;;;17.96;57.19
74680;BME280;63211;48.548;2.704;2024-01-06T02:50:47;100100.66;;;17.96;56.60
74680;BME280;63211;48.548;2.704;2024-01-06T02:53:14;100102.91;;;17.99;56.41
74680;BME280;63211;48.548;2.704;2024-01-06T02:55:40;100090.81;;;17.95;55.86
74680;BME280;63211;48.548;2.704;2024-01-06T02:58:09;100104.69;;;18.05;54.87
74680;BME280;63211;48.548;2.704;2024-01-06T03:00:35;100107.72;;;18.09;54.42
74680;BME280;63211;48.548;2.704;2024-01-06T03:03:01;100115.78;;;18.15;54.42
74680;BME280;63211;48.548;2.704;2024-01-06T03:05:27;100112.97;;;18.22;54.26
74680;BME280;63211;48.548;2.704;2024-01-06T03:07:54;100111.66;;;18.25;54.54
74680;BME280;63211;48.548;2.704;2024-01-06T03:10:20;100112.13;;;18.22;54.52
74680;BME280;63211;48.548;2.704;2024-01-06T03:12:47;100127.88;;;18.19;54.92
74680;BME280;63211;48.548;2.704;2024-01-06T03:15:15;100126.22;;;18.18;55.42
74680;BME280;63211;48.548;2.704;2024-01-06T03:17:42;100113.91;;;18.16;55.56
74680;BME280;63211;48.548;2.704;2024-01-06T03:20:09;100122.53;;;18.13;55.40
74680;BME280;63211;48.548;2.704;2024-01-06T03:22:35;100127.41;;;18.11;55.80
74680;BME280;63211;48.548;2.704;2024-01-06T03:25:02;100125.19;;;18.08;55.68
74680;BME280;63211;48.548;2.704;2024-01-06T03:27:29;100126.72;;;18.04;55.96
74680;BME280;63211;48.548;2.704;2024-01-06T03:29:55;100136.31;;;18.06;56.10
74680;BME280;63211;48.548;2.704;2024-01-06T03:32:23;100130.25;;;18.04;56.22
74680;BME280;63211;48.548;2.704;2024-01-06T03:34:50;100138.66;;;18.03;56.67
74680;BME280;63211;48.548;2.704;2024-01-06T03:37:17;100137.84;;;18.02;57.00
74680;BME280;63211;48.548;2.704;2024-01-06T03:39:43;100141.63;;;18.01;56.86
74680;BME280;63211;48.548;2.704;2024-01-06T03:42:10;100141.88;;;18.00;56.92
74680;BME280;63211;48.548;2.704;2024-01-06T03:44:36;100148.75;;;18.02;56.69
74680;BME280;63211;48.548;2.704;2024-01-06T03:47:03;100136.78;;;18.03;56.25
74680;BME280;63211;48.548;2.704;2024-01-06T03:49:31;100125.16;;;17.96;55.69
74680;BME280;63211;48.548;2.704;2024-01-06T03:51:58;100142.09;;;18.10;55.39
74680;BME280;63211;48.548;2.704;2024-01-06T03:54:24;100144.09;;;18.14;54.58
74680;BME280;63211;48.548;2.704;2024-01-06T03:56:51;100153.47;;;18.18;54.43
74680;BME280;63211;48.548;2.704;2024-01-06T03:59:17;100163.44;;;18.25;53.53
74680;BME280;63211;48.548;2.704;2024-01-06T04:01:44;100151.78;;;18.29;53.04
74680;BME280;63211;48.548;2.704;2024-01-06T04:04:11;100160.22;;;18.28;53.23
74680;BME280;63211;48.548;2.704;2024-01-06T04:06:38;100152.53;;;18.25;54.32
74680;BME280;63211;48.548;2.704;2024-01-06T04:09:05;100151.09;;;18.22;54.79
74680;BME280;63211;48.548;2.704;2024-01-06T04:11:32;100156.78;;;18.20;54.96
74680;BME280;63211;48.548;2.704;2024-01-06T04:13:58;100157.84;;;18.19;55.43
74680;BME280;63211;48.548;2.704;2024-01-06T04:16:25;100162.72;;;18.17;55.41
74680;BME280;63211;48.548;2.704;2024-01-06T04:18:52;100164.00;;;18.15;55.28
74680;BME280;63211;48.548;2.704;2024-01-06T04:21:18;100163.19;;;18.14;55.57
74680;BME280;63211;48.548;2.704;2024-01-06T04:23:46;100166.38;;;18.11;55.64
74680;BME280;63211;48.548;2.704;2024-01-06T04:26:13;100146.84;;;18.03;55.70
74680;BME280;63211;48.548;2.704;2024-01-06T04:28:40;100157.59;;;18.09;55.82
74680;BME280;63211;48.548;2.704;2024-01-06T04:31:06;100164.38;;;18.07;55.71
74680;BME280;63211;48.548;2.704;2024-01-06T04:33:33;100164.38;;;18.07;56.18
74680;BME280;63211;48.548;2.704;2024-01-06T04:36:00;100166.50;;;18.05;56.11
74680;BME280;63211;48.548;2.704;2024-01-06T04:38:27;100165.69;;;18.04;56.23
74680;BME280;63211;48.548;2.704;2024-01-06T04:40:55;100173.84;;;18.04;56.25
74680;BME280;63211;48.548;2.704;2024-01-06T04:43:21;100173.13;;;18.09;55.71
74680;BME280;63211;48.548;2.704;2024-01-06T04:45:48;100157.59;;;18.09;55.55
74680;BME280;63211;48.548;2.704;2024-01-06T04:48:15;100168.38;;;18.16;55.03
74680;BME280;63211;48.548;2.704;2024-01-06T04:50:42;100166.84;;;18.20;54.69
74680;BME280;63211;48.548;2.704;2024-01-06T04:53:08;100165.41;;;18.29;54.15
74680;BME280;63211;48.548;2.704;2024-01-06T04:55:35;100168.72;;;18.31;54.02
74680;BME280;63211;48.548;2.704;2024-01-06T04:58:03;100176.19;;;18.36;53.46
74680;BME280;63211;48.548;2.704;2024-01-06T05:00:30;100178.34;;;18.34;53.17
74680;BME280;63211;48.548;2.704;2024-01-06T05:02:56;100184.50;;;18.29;53.45
74680;BME280;63211;48.548;2.704;2024-01-06T05:05:23;100179.31;;;18.28;54.23
74680;BME280;63211;48.548;2.704;2024-01-06T05:07:49;100182.25;;;18.26;54.52
74680;BME280;63211;48.548;2.704;2024-01-06T05:10:16;100181.66;;;18.24;55.05
74680;BME280;63211;48.548;2.704;2024-01-06T05:12:43;100182.97;;;18.22;54.90
74680;BME280;63211;48.548;2.704;2024-01-06T05:15:12;100186.75;;;18.20;55.03
74680;BME280;63211;48.548;2.704;2024-01-06T05:17:38;100189.72;;;18.19;55.27
74680;BME280;63211;48.548;2.704;2024-01-06T05:20:06;100197.28;;;18.17;55.11
74680;BME280;63211;48.548;2.704;2024-01-06T05:22:33;100197.53;;;18.15;55.58
74680;BME280;63211;48.548;2.704;2024-01-06T05:24:59;100188.75;;;18.13;55.76
74680;BME280;63211;48.548;2.704;2024-01-06T05:27:26;100193.38;;;18.13;55.41
74680;BME280;63211;48.548;2.704;2024-01-06T05:29:52;100190.06;;;18.11;55.56
74680;BME280;63211;48.548;2.704;2024-01-06T05:32:20;100193.28;;;18.08;55.94
74680;BME280;63211;48.548;2.704;2024-01-06T05:34:48;100208.53;;;18.09;55.71
74680;BME280;63211;48.548;2.704;2024-01-06T05:37:15;100211.03;;;18.10;55.52
74680;BME280;63211;48.548;2.704;2024-01-06T05:39:41;100208.91;;;18.12;55.32
74680;BME280;63211;48.548;2.704;2024-01-06T05:42:09;100209.50;;;18.14;54.67
74680;BME280;63211;48.548;2.704;2024-01-06T05:44:36;100210.69;;;18.18;54.66
74680;BME280;63211;48.548;2.704;2024-01-06T05:47:03;100214.38;;;18.24;53.96
74680;BME280;63211;48.548;2.704;2024-01-06T05:49:31;100207.13;;;18.30;54.38
74680;BME280;63211;48.548;2.704;2024-01-06T05:51:58;100209.38;;;18.33;54.12
74680;BME280;63211;48.548;2.704;2024-01-06T05:54:25;100207.13;;;18.41;53.90
74680;BME280;63211;48.548;2.704;2024-01-06T05:56:51;100213.88;;;18.39;53.62
74680;BME280;63211;48.548;2.704;2024-01-06T05:59:18;100212.94;;;18.33;54.12
74680;BME280;63211;48.548;2.704;2024-01-06T06:01:44;100228.91;;;18.30;54.30
74680;BME280;63211;48.548;2.704;2024-01-06T06:04:11;100230.81;;;18.29;54.49
74680;BME280;63211;48.548;2.704;2024-01-06T06:06:39;100226.94;;;18.25;54.72
74680;BME280;63211;48.548;2.704;2024-01-06T06:09:05;100233.22;;;18.26;54.72
74680;BME280;63211;48.548;2.704;2024-01-06T06:11:32;100239.34;;;18.21;54.89
74680;BME280;63211;48.548;2.704;2024-01-06T06:13:59;100234.97;;;18.20;54.48
74680;BME280;63211;48.548;2.704;2024-01-06T06:16:28;100244.44;;;18.17;54.84
74680;BME280;63211;48.548;2.704;2024-01-06T06:18:55;100237.09;;;18.18;54.94
74680;BME280;63211;48.548;2.704;2024-01-06T06:21:21;100251.78;;;18.17;55.18
74680;BME280;63211;48.548;2.704;2024-01-06T06:23:49;100257.47;;;18.15;55.28
74680;BME280;63211;48.548;2.704;2024-01-06T06:26:16;100255.81;;;18.14;55.03
74680;BME280;63211;48.548;2.704;2024-01-06T06:28:42;100253.31;;;18.13;54.97
74680;BME280;63211;48.548;2.704;2024-01-06T06:31:09;100259.00;;;18.11;55.02
74680;BME280;63211;48.548;2.704;2024-01-06T06:33:35;100272.38;;;18.13;55.25
74680;BME280;63211;48.548;2.704;2024-01-06T06:36:02;100271.09;;;18.15;55.17
74680;BME280;63211;48.548;2.704;2024-01-06T06:38:29;100275.47;;;18.16;54.17
74680;BME280;63211;48.548;2.704;2024-01-06T06:40:57;100281.28;;;18.20;54.21
74680;BME280;63211;48.548;2.704;2024-01-06T06:43:23;100289.38;;;18.27;54.34
74680;BME280;63211;48.548;2.704;2024-01-06T06:45:50;100285.91;;;18.31;54.06
74680;BME280;63211;48.548;2.704;2024-01-06T06:48:17;100280.59;;;18.36;53.91
74680;BME280;63211;48.548;2.704;2024-01-06T06:50:43;100288.53;;;18.38;53.68
74680;BME280;63211;48.548;2.704;2024-01-06T06:53:10;100298.97;;;18.41;53.69
74680;BME280;63211;48.548;2.704;2024-01-06T06:55:38;100300.50;;;18.37;54.02
74680;BME280;63211;48.548;2.704;2024-01-06T06:58:07;100300.13;;;18.33;54.28
74680;BME280;63211;48.548;2.704;2024-01-06T07:00:34;100307.47;;;18.33;54.33
74680;BME280;63211;48.548;2.704;2024-01-06T07:03:00;100307.94;;;18.30;54.56
74680;BME280;63211;48.548;2.704;2024-01-06T07:05:27;100319.94;;;18.29;54.45
74680;BME280;63211;48.548;2.704;2024-01-06T07:07:54;100317.44;;;18.27;54.51
74680;BME280;63211;48.548;2.704;2024-01-06T07:10:20;100321.47;;;18.25;54.90
74680;BME280;63211;48.548;2.704;2024-01-06T07:12:47;100326.31;;;18.23;54.62
74680;BME280;63211;48.548;2.704;2024-01-06T07:15:15;100328.44;;;18.20;54.88
74680;BME280;63211;48.548;2.704;2024-01-06T07:17:41;100337.69;;;18.19;54.93
74680;BME280;63211;48.548;2.704;2024-01-06T07:20:08;100345.25;;;18.17;54.97
74680;BME280;63211;48.548;2.704;2024-01-06T07:22:35;100347.38;;;18.15;55.11
74680;BME280;63211;48.548;2.704;2024-01-06T07:25:02;100351.78;;;18.16;55.00
74680;BME280;63211;48.548;2.704;2024-01-06T07:27:29;100353.91;;;18.14;55.06
74680;BME280;63211;48.548;2.704;2024-01-06T07:29:55;100346.56;;;18.15;54.94
74680;BME280;63211;48.548;2.704;2024-01-06T07:32:23;100364.34;;;18.17;55.18
74680;BME280;63211;48.548;2.704;2024-01-06T07:34:50;100358.28;;;18.15;54.50
74680;BME280;63211;48.548;2.704;2024-01-06T07:37:17;100367.44;;;18.21;53.74
74680;BME280;63211;48.548;2.704;2024-01-06T07:39:43;100370.75;;;18.23;53.43
74680;BME280;63211;48.548;2.704;2024-01-06T07:42:10;100375.50;;;18.28;53.28
74680;BME280;63211;48.548;2.704;2024-01-06T07:44:37;100366.38;;;18.34;53.48
74680;BME280;63211;48.548;2.704;2024-01-06T07:47:03;100367.59;;;18.38;53.70
74680;BME280;63211;48.548;2.704;2024-01-06T07:49:32;100375.28;;;18.41;53.82
74680;BME280;63211;48.548;2.704;2024-01-06T07:51:58;100379.31;;;18.38;53.57
74680;BME280;63211;48.548;2.704;2024-01-06T07:54:25;100386.88;;;18.36;53.86
74680;BME280;63211;48.548;2.704;2024-01-06T07:56:52;100389.25;;;18.33;53.65
74680;BME280;63211;48.548;2.704;2024-01-06T07:59:18;100387.81;;;18.30;53.50
74680;BME280;63211;48.548;2.704;2024-01-06T08:01:45;100395.41;;;18.28;54.21
74680;BME280;63211;48.548;2.704;2024-01-06T08:04:12;100392.56;;;18.23;54.60
74680;BME280;63211;48.548;2.704;2024-01-06T08:06:39;100388.72;;;18.12;54.66
74680;BME280;63211;48.548;2.704;2024-01-06T08:09:06;100397.84;;;18.48;54.29
74680;BME280;63211;48.548;2.704;2024-01-06T08:11:33;100401.13;;;18.50;53.76
74680;BME280;63211;48.548;2.704;2024-01-06T08:14:00;100321.94;;;17.92;54.08
74680;BME280;63211;48.548;2.704;2024-01-06T08:16:26;100411.56;;;18.41;54.27
74680;BME280;63211;48.548;2.704;2024-01-06T08:18:53;100410.72;;;18.41;54.09
74680;BME280;63211;48.548;2.704;2024-01-06T08:21:19;100416.41;;;18.39;53.94
74680;BME280;63211;48.548;2.704;2024-01-06T08:23:47;100412.72;;;18.34;54.41
74680;BME280;63211;48.548;2.704;2024-01-06T08:26:14;100411.78;;;18.28;54.78
74680;BME280;63211;48.548;2.704;2024-01-06T08:28:41;100414.72;;;18.27;54.83
74680;BME280;63211;48.548;2.704;2024-01-06T08:31:07;100418.22;;;18.45;54.24
74680;BME280;63211;48.548;2.704;2024-01-06T08:33:34;100427.66;;;18.61;54.53
74680;BME280;63211;48.548;2.704;2024-01-06T08:36:03;100431.63;;;18.59;54.52
74680;BME280;63211;48.548;2.704;2024-01-06T08:38:30;100431.88;;;18.57;54.24
74680;BME280;63211;48.548;2.704;2024-01-06T08:40:58;100438.16;;;18.58;53.59
74680;BME280;63211;48.548;2.704;2024-01-06T08:43:24;100441.81;;;18.51;53.74
74680;BME280;63211;48.548;2.704;2024-01-06T08:45:51;100445.34;;;18.52;53.60
74680;BME280;63211;48.548;2.704;2024-01-06T08:48:17;100448.09;;;18.52;53.62
74680;BME280;63211;48.548;2.704;2024-01-06T08:50:44;100453.75;;;18.50;53.42
74680;BME280;63211;48.548;2.704;2024-01-06T08:53:11;100448.31;;;18.50;53.56
74680;BME280;63211;48.548;2.704;2024-01-06T08:55:38;100452.13;;;18.49;53.52
74680;BME280;63211;48.548;2.704;2024-01-06T08:58:06;100450.22;;;18.50;53.48
74680;BME280;63211;48.548;2.704;2024-01-06T09:00:32;100452.13;;;18.49;53.55
74680;BME280;63211;48.548;2.704;2024-01-06T09:02:59;100453.44;;;18.47;53.60
74680;BME280;63211;48.548;2.704;2024-01-06T09:05:26;100444.19;;;18.48;53.45
74680;BME280;63211;48.548;2.704;2024-01-06T09:07:52;100450.94;;;18.45;53.50
74680;BME280;63211;48.548;2.704;2024-01-06T09:10:19;100449.25;;;18.44;53.27
74680;BME280;63211;48.548;2.704;2024-01-06T09:12:46;100454.13;;;18.42;53.15
74680;BME280;63211;48.548;2.704;2024-01-06T09:15:14;100424.66;;;18.21;52.93
74680;BME280;63211;48.548;2.704;2024-01-06T09:17:41;100463.34;;;18.41;53.02
74680;BME280;63211;48.548;2.704;2024-01-06T09:20:08;100458.13;;;18.40;53.15
74680;BME280;63211;48.548;2.704;2024-01-06T09:22:35;100460.25;;;18.38;52.87
74680;BME280;63211;48.548;2.704;2024-01-06T09:25:01;100460.25;;;18.38;53.01
74680;BME280;63211;48.548;2.704;2024-01-06T09:27:28;100466.31;;;18.40;52.82
74680;BME280;63211;48.548;2.704;2024-01-06T09:29:54;100466.31;;;18.40;53.01
74680;BME280;63211;48.548;2.704;2024-01-06T09:32:22;100472.38;;;18.42;53.11
74680;BME280;63211;48.548;2.704;2024-01-06T09:34:49;100460.16;;;18.44;52.84
74680;BME280;63211;48.548;2.704;2024-01-06T09:37:15;100472.75;;;18.45;52.91
74680;BME280;63211;48.548;2.704;2024-01-06T09:39:42;100470.25;;;18.44;52.93
74680;BME280;63211;48.548;2.704;2024-01-06T09:42:09;100479.25;;;18.44;52.87
74680;BME280;63211;48.548;2.704;2024-01-06T09:44:36;100473.78;;;18.44;52.56
74680;BME280;63211;48.548;2.704;2024-01-06T09:47:03;100475.47;;;18.45;52.46
74680;BME280;63211;48.548;2.704;2024-01-06T09:49:32;100481.97;;;18.44;52.57
74680;BME280;63211;48.548;2.704;2024-01-06T09:52:02;100485.75;;;18.43;51.88
74680;BME280;63211;48.548;2.704;2024-01-06T09:54:31;100473.50;;;18.34;51.99
74680;BME280;63211;48.548;2.704;2024-01-06T09:57:02;100487.13;;;18.34;52.09
74680;BME280;63211;48.548;2.704;2024-01-06T09:59:31;100488.34;;;18.38;52.36
74680;BME280;63211;48.548;2.704;2024-01-06T10:02:00;100491.28;;;18.37;52.05
74680;BME280;63211;48.548;2.704;2024-01-06T10:04:27;100503.25;;;18.36;52.14
74680;BME280;63211;48.548;2.704;2024-01-06T10:06:55;100514.38;;;18.34;52.23
74680;BME280;63211;48.548;2.704;2024-01-06T10:09:26;100509.28;;;18.26;52.13
74680;BME280;63211;48.548;2.704;2024-01-06T10:11:55;100503.72;;;18.33;51.98
74680;BME280;63211;48.548;2.704;2024-01-06T10:14:21;100505.75;;;18.37;52.54
74680;BME280;63211;48.548;2.704;2024-01-06T10:16:48;100510.44;;;18.30;52.08
74680;BME280;63211;48.548;2.704;2024-01-06T10:19:16;100512.72;;;18.33;51.96
74680;BME280;63211;48.548;2.704;2024-01-06T10:21:43;100515.06;;;18.30;51.50
74680;BME280;63211;48.548;2.704;2024-01-06T10:24:11;100517.78;;;18.30;52.12
74680;BME280;63211;48.548;2.704;2024-01-06T10:26:39;100513.66;;;18.27;52.21
74680;BME280;63211;48.548;2.704;2024-01-06T10:29:05;100513.44;;;18.29;52.48
74680;BME280;63211;48.548;2.704;2024-01-06T10:31:32;100515.06;;;18.30;52.27
74680;BME280;63211;48.548;2.704;2024-01-06T10:34:00;100460.34;;;18.01;52.18
74680;BME280;63211;48.548;2.704;2024-01-06T10:36:26;100514.75;;;18.38;51.95
74680;BME280;63211;48.548;2.704;2024-01-06T10:38:56;100512.50;;;18.35;52.63
74680;BME280;63211;48.548;2.704;2024-01-06T10:41:24;100509.16;;;18.33;52.40
74680;BME280;63211;48.548;2.704;2024-01-06T10:43:51;100507.50;;;18.32;52.48
74680;BME280;63211;48.548;2.704;2024-01-06T10:46:19;100507.72;;;18.30;52.50
74680;BME280;63211;48.548;2.704;2024-01-06T10:48:46;100506.38;;;18.39;52.52
74680;BME280;63211;48.548;2.704;2024-01-06T10:51:13;100505.69;;;18.44;52.51
74680;BME280;63211;48.548;2.704;2024-01-06T10:53:40;100503.94;;;18.49;52.74
74680;BME280;63211;48.548;2.704;2024-01-06T10:56:08;100510.53;;;18.42;52.90
74680;BME280;63211;48.548;2.704;2024-01-06T10:58:37;100503.72;;;18.33;52.94
74680;BME280;63211;48.548;2.704;2024-01-06T11:01:08;100508.78;;;18.29;52.80
74680;BME280;63211;48.548;2.704;2024-01-06T11:03:36;100511.16;;;18.26;52.94
74680;BME280;63211;48.548;2.704;2024-01-06T11:06:03;100501.41;;;18.18;52.77
74680;BME280;63211;48.548;2.704;2024-01-06T11:08:31;100504.50;;;18.22;52.61
74680;BME280;63211;48.548;2.704;2024-01-06T11:10:59;100501.78;;;18.22;52.75
74680;BME280;63211;48.548;2.704;2024-01-06T11:13:26;100497.38;;;18.20;52.54
74680;BME280;63211;48.548;2.704;2024-01-06T11:15:55;100496.19;;;18.16;52.52
74680;BME280;63211;48.548;2.704;2024-01-06T11:18:32;100495.94;;;18.18;52.74
74680;BME280;63211;48.548;2.704;2024-01-06T11:21:16;100491.78;;;18.15;52.73
74680;BME280;63211;48.548;2.704;2024-01-06T11:23:44;100498.91;;;18.16;52.52
74680;BME280;63211;48.548;2.704;2024-01-06T11:26:15;100493.06;;;18.13;52.62
74680;BME280;63211;48.548;2.704;2024-01-06T11:28:45;100492.84;;;18.14;52.53
74680;BME280;63211;48.548;2.704;2024-01-06T11:31:13;100490.34;;;18.13;52.63
74680;BME280;63211;48.548;2.704;2024-01-06T11:33:41;100487.63;;;18.13;52.35
74680;BME280;63211;48.548;2.704;2024-01-06T11:36:08;100468.28;;;18.03;52.68
74680;BME280;63211;48.548;2.704;2024-01-06T11:38:37;100472.44;;;18.05;53.10
74680;BME280;63211;48.548;2.704;2024-01-06T11:41:06;100478.16;;;18.15;52.99
74680;BME280;63211;48.548;2.704;2024-01-06T11:43:34;100450.50;;;18.00;53.18
74680;BME280;63211;48.548;2.704;2024-01-06T11:46:01;100477.84;;;18.24;52.99
74680;BME280;63211;48.548;2.704;2024-01-06T11:48:31;100479.53;;;18.25;52.79
74680;BME280;63211;48.548;2.704;2024-01-06T11:50:59;100482.03;;;18.26;52.95
74680;BME280;63211;48.548;2.704;2024-01-06T11:53:26;100486.19;;;18.29;52.96
74680;BME280;63211;48.548;2.704;2024-01-06T11:55:53;100477.19;;;18.28;52.72
74680;BME280;63211;48.548;2.704;2024-01-06T11:58:19;100444.13;;;18.06;52.78
74680;BME280;63211;48.548;2.704;2024-01-06T12:00:55;100470.63;;;18.29;52.31
74680;BME280;63211;48.548;2.704;2024-01-06T12:03:22;100468.75;;;18.30;52.32
74680;BME280;63211;48.548;2.704;2024-01-06T12:06:00;100469.22;;;18.27;52.40
74680;BME280;63211;48.548;2.704;2024-01-06T12:08:28;100462.19;;;18.19;52.00
74680;BME280;63211;48.548;2.704;2024-01-06T12:11:02;100479.16;;;18.21;52.26
74680;BME280;63211;48.548;2.704;2024-01-06T12:13:28;100478.78;;;18.17;52.53
74680;BME280;63211;48.548;2.704;2024-01-06T12:15:55;100468.19;;;18.09;52.25
74680;BME280;63211;48.548;2.704;2024-01-06T12:18:22;100468.78;;;18.11;52.35
74680;BME280;63211;48.548;2.704;2024-01-06T12:20:49;100467.22;;;18.04;51.74
74680;BME280;63211;48.548;2.704;2024-01-06T12:23:25;100466.00;;;18.00;52.30
74680;BME280;63211;48.548;2.704;2024-01-06T12:25:53;100452.31;;;17.88;52.71
74680;BME280;63211;48.548;2.704;2024-01-06T12:28:19;100463.97;;;17.95;52.29
74680;BME280;63211;48.548;2.704;2024-01-06T12:30:46;100457.53;;;17.90;53.04
74680;BME280;63211;48.548;2.704;2024-01-06T12:33:12;100410.34;;;17.59;52.51
74680;BME280;63211;48.548;2.704;2024-01-06T12:35:39;100455.88;;;17.89;52.40
74680;BME280;63211;48.548;2.704;2024-01-06T12:38:08;100456.91;;;17.88;52.58
74680;BME280;63211;48.548;2.704;2024-01-06T12:40:36;100448.47;;;17.77;52.51
74680;BME280;63211;48.548;2.704;2024-01-06T12:43:03;100450.75;;;17.80;52.22
74680;BME280;63211;48.548;2.704;2024-01-06T12:45:30;100453.84;;;17.84;52.06
74680;BME280;63211;48.548;2.704;2024-01-06T12:47:57;100447.34;;;17.85;51.47
74680;BME280;63211;48.548;2.704;2024-01-06T12:50:23;100453.41;;;17.87;51.19